Time;durP1;ratioP1;P1;durP2;ratioP2;P2;SDS_P1;SDS_P2;PMS_P1;PMS_P2;Temp;Humidity;BMP_temperature;BMP_pressure;BME280_temperature;BME280_humidity;BME280_pressure;Samples;Min_cycle;Max_cycle;Signal;HPM_P1;HPM_P2
2021/06/28 00:01:18;;;;;;;13.47;5.13;;;;;;;16.50;70.05;100406.63;125939;1093;24137;-58
2021/06/28 00:03:49;;;;;;;17.80;5.47;;;;;;;16.47;70.19;100393.52;125972;1093;25548;-57
2021/06/28 00:06:21;;;;;;;11.50;4.90;;;;;;;16.45;69.62;100395.34;125893;1093;22807;-58
2021/06/28 00:08:53;;;;;;;13.90;5.40;;;;;;;16.41;70.11;100400.48;126039;1093;26270;-57
2021/06/28 00:11:26;;;;;;;13.95;5.70;;;;;;;16.37;69.81;100400.72;126040;1093;22760;-58
2021/06/28 00:13:57;;;;;;;15.65;6.55;;;;;;;16.33;69.98;100396.63;125915;1093;22788;-58
2021/06/28 00:16:29;;;;;;;12.70;4.70;;;;;;;16.26;70.00;100409.21;126063;1093;22781;-58
2021/06/28 00:19:02;;;;;;;10.85;5.20;;;;;;;16.25;70.29;100398.44;125872;1093;22843;-57
2021/06/28 00:21:37;;;;;;;13.13;6.10;;;;;;;16.22;70.13;100391.80;125925;1093;24469;-59
2021/06/28 00:24:12;;;;;;;12.07;5.13;;;;;;;16.17;70.34;100401.02;125872;1093;22819;-57
2021/06/28 00:26:45;;;;;;;13.65;6.45;;;;;;;16.13;70.45;100394.88;125913;1093;22751;-59
2021/06/28 00:29:17;;;;;;;15.45;5.90;;;;;;;16.10;70.55;100398.70;125859;1093;22880;-58
2021/06/28 00:31:51;;;;;;;14.25;5.60;;;;;;;16.07;70.23;100400.52;125932;1093;22778;-58
2021/06/28 00:34:23;;;;;;;13.75;6.40;;;;;;;16.04;70.32;100395.13;126015;1093;22832;-60
2021/06/28 00:36:54;;;;;;;11.57;5.33;;;;;;;16.02;70.79;100406.91;125970;1093;22816;-58
2021/06/28 00:39:25;;;;;;;14.20;5.73;;;;;;;15.99;70.58;100404.37;125899;1093;24424;-58
2021/06/28 00:41:57;;;;;;;11.05;4.90;;;;;;;15.96;70.64;100396.93;125850;1092;22764;-57
2021/06/28 00:44:28;;;;;;;14.85;7.00;;;;;;;15.95;70.93;100409.48;125760;1093;22806;-56
2021/06/28 00:47:00;;;;;;;13.25;6.15;;;;;;;15.94;71.09;100410.75;125895;1093;22778;-57
2021/06/28 00:49:31;;;;;;;12.45;6.60;;;;;;;15.91;71.06;100406.16;126145;1092;22794;-61
2021/06/28 00:52:04;;;;;;;13.70;6.60;;;;;;;15.88;71.03;100409.98;125992;1093;22762;-59
2021/06/28 00:54:37;;;;;;;12.55;5.90;;;;;;;15.86;71.28;100406.92;125944;1093;26239;-57
2021/06/28 00:57:10;;;;;;;13.33;6.13;;;;;;;15.84;71.46;100415.88;125814;1093;27170;-57
2021/06/28 00:59:43;;;;;;;13.80;6.20;;;;;;;15.79;71.44;100415.86;126000;1093;22824;-55
2021/06/28 01:02:14;;;;;;;13.90;6.25;;;;;;;15.77;71.67;100415.60;125910;1093;22787;-57
2021/06/28 01:04:46;;;;;;;14.35;5.75;;;;;;;15.77;71.45;100415.60;125870;1092;22777;-56
2021/06/28 01:07:17;;;;;;;11.70;6.00;;;;;;;15.75;71.47;100413.30;125860;1093;22761;-57
2021/06/28 01:09:49;;;;;;;12.60;6.00;;;;;;;15.73;71.36;100421.49;125945;1093;22761;-57
2021/06/28 01:12:21;;;;;;;12.50;4.90;;;;;;;15.69;71.68;100415.35;125905;1093;24420;-58
2021/06/28 01:14:53;;;;;;;15.20;5.60;;;;;;;15.67;71.51;100422.77;125901;1093;25986;-57
2021/06/28 01:17:26;;;;;;;15.15;6.20;;;;;;;15.65;72.03;100416.88;125888;1093;27256;-59
2021/06/28 01:20:01;;;;;;;12.35;5.55;;;;;;;15.65;72.14;100408.43;126046;1093;22788;-58
2021/06/28 01:22:35;;;;;;;11.40;5.60;;;;;;;15.60;71.81;100415.59;125972;1093;22742;-57
2021/06/28 01:25:10;;;;;;;14.65;6.15;;;;;;;15.56;72.16;100406.63;125985;1093;22855;-57
2021/06/28 01:27:43;;;;;;;12.90;5.35;;;;;;;15.54;72.19;100411.25;126190;1093;22787;-58
2021/06/28 01:30:18;;;;;;;14.75;4.80;;;;;;;15.50;72.99;100410.73;125872;1092;22757;-57
2021/06/28 01:32:50;;;;;;;10.05;4.30;;;;;;;15.46;72.83;100410.96;126041;1091;22783;-55
2021/06/28 01:35:23;;;;;;;10.60;4.15;;;;;;;15.43;72.46;100409.19;126078;1092;22973;-56
2021/06/28 01:37:55;;;;;;;10.80;3.85;;;;;;;15.37;72.64;100399.94;126394;1093;22812;-57
2021/06/28 01:40:26;;;;;;;11.13;4.47;;;;;;;15.31;72.42;100402.72;125904;1093;24461;-59
2021/06/28 01:42:58;;;;;;;10.95;4.50;;;;;;;15.28;72.74;100398.13;125906;1093;22761;-57
2021/06/28 01:45:30;;;;;;;10.57;4.60;;;;;;;15.24;72.41;100397.60;126104;1093;22741;-57
2021/06/28 01:48:02;;;;;;;12.90;4.50;;;;;;;15.21;72.29;100404.23;125860;1093;22855;-56
2021/06/28 01:50:36;;;;;;;11.47;4.63;;;;;;;15.21;72.57;100403.45;125953;1092;22781;-56
2021/06/28 01:53:08;;;;;;;11.70;4.65;;;;;;;15.17;72.48;100400.89;126103;1093;22794;-59
2021/06/28 01:55:41;;;;;;;11.50;4.55;;;;;;;15.13;72.59;100408.03;125958;1092;22757;-58
2021/06/28 01:58:15;;;;;;;13.87;5.07;;;;;;;15.10;72.60;100403.44;125863;1093;27740;-57
2021/06/28 02:00:50;;;;;;;12.10;6.10;;;;;;;15.08;72.48;100403.92;125855;1093;22771;-58
2021/06/28 02:03:23;;;;;;;13.57;5.40;;;;;;;15.05;72.88;100401.36;125867;1093;27198;-58
2021/06/28 02:05:56;;;;;;;11.10;5.05;;;;;;;15.03;72.96;100404.69;125908;1093;22842;-57
2021/06/28 02:08:30;;;;;;;12.25;4.80;;;;;;;15.01;73.24;100395.22;125889;1093;23707;-57
2021/06/28 02:11:04;;;;;;;13.00;5.40;;;;;;;14.99;72.96;100392.14;125948;1093;22845;-57
2021/06/28 02:13:38;;;;;;;13.35;6.05;;;;;;;14.97;73.12;100389.84;125951;1093;22846;-56
2021/06/28 02:16:10;;;;;;;13.27;6.27;;;;;;;14.95;73.46;100398.02;125934;1093;22780;-57
2021/06/28 02:18:41;;;;;;;13.15;6.60;;;;;;;14.94;73.38;100392.91;125951;1093;26936;-60
2021/06/28 02:21:13;;;;;;;14.90;6.00;;;;;;;14.93;73.47;100394.95;126005;1093;24576;-55
2021/06/28 02:23:45;;;;;;;14.40;6.70;;;;;;;14.92;73.50;100393.39;125859;1093;22809;-58
2021/06/28 02:26:17;;;;;;;14.60;6.90;;;;;;;14.91;73.46;100397.49;125975;1093;22761;-55
2021/06/28 02:28:51;;;;;;;13.63;5.87;;;;;;;14.90;73.92;100395.17;125867;1093;22764;-57
2021/06/28 02:31:24;;;;;;;15.95;6.95;;;;;;;14.86;73.79;100395.42;126028;1093;22779;-58
2021/06/28 02:33:57;;;;;;;14.55;6.75;;;;;;;14.86;74.05;100392.61;126050;1093;22800;-58
2021/06/28 02:36:29;;;;;;;14.63;6.33;;;;;;;14.84;73.92;100392.34;126191;1093;26935;-55
2021/06/28 02:39:03;;;;;;;14.63;6.77;;;;;;;14.83;74.27;100388.02;125877;1093;25986;-58
2021/06/28 02:41:37;;;;;;;14.35;6.85;;;;;;;14.83;74.12;100385.20;125839;1093;22788;-57
2021/06/28 02:44:10;;;;;;;15.30;7.20;;;;;;;14.82;74.32;100391.30;125958;1093;26550;-58
2021/06/28 02:46:42;;;;;;;16.40;7.10;;;;;;;14.81;74.23;100384.94;125846;1093;22758;-58
2021/06/28 02:49:14;;;;;;;14.00;6.70;;;;;;;14.80;74.51;100377.77;125868;1093;24306;-58
2021/06/28 02:51:46;;;;;;;13.85;6.60;;;;;;;14.78;74.16;100377.50;125919;1093;22787;-57
2021/06/28 02:54:18;;;;;;;18.27;7.57;;;;;;;14.77;74.25;100375.20;125803;1093;22788;-57
2021/06/28 02:56:49;;;;;;;15.50;7.30;;;;;;;14.76;74.44;100371.62;125875;1092;22841;-58
2021/06/28 02:59:22;;;;;;;17.30;7.95;;;;;;;14.75;74.79;100378.53;125991;1093;27370;-56
2021/06/28 03:01:54;;;;;;;17.75;7.60;;;;;;;14.75;74.71;100375.72;125949;1093;22845;-57
2021/06/28 03:04:26;;;;;;;14.37;6.77;;;;;;;14.75;74.71;100372.91;125887;1092;22862;-57
2021/06/28 03:06:58;;;;;;;17.30;7.95;;;;;;;14.76;74.83;100366.00;125927;1093;22839;-55
2021/06/28 03:09:29;;;;;;;17.13;7.57;;;;;;;14.77;75.17;100366.77;126184;1093;25957;-56
2021/06/28 03:12:00;;;;;;;17.40;7.53;;;;;;;14.77;75.34;100367.55;125869;1093;22790;-56
2021/06/28 03:14:32;;;;;;;14.33;5.97;;;;;;;14.79;75.12;100367.03;125923;1093;22736;-58
2021/06/28 03:17:04;;;;;;;14.83;7.00;;;;;;;14.80;75.07;100372.14;125907;1093;22764;-58
2021/06/28 03:19:36;;;;;;;14.87;6.50;;;;;;;14.80;75.19;100383.39;125998;1093;22793;-58
2021/06/28 03:22:07;;;;;;;18.47;8.33;;;;;;;14.80;75.27;100366.52;125892;1093;22790;-57
2021/06/28 03:24:39;;;;;;;18.60;8.15;;;;;;;14.81;75.11;100375.73;125824;1093;22730;-58
2021/06/28 03:27:10;;;;;;;14.55;7.70;;;;;;;14.83;75.58;100381.61;125819;1093;22797;-59
2021/06/28 03:29:43;;;;;;;17.70;9.35;;;;;;;14.83;75.97;100382.39;125905;1093;22730;-58
2021/06/28 03:32:15;;;;;;;21.10;9.00;;;;;;;14.84;75.95;100385.95;125890;1093;24553;-56
2021/06/28 03:34:46;;;;;;;15.20;8.25;;;;;;;14.86;76.01;100386.21;125981;1093;22778;-58
2021/06/28 03:37:18;;;;;;;16.25;7.85;;;;;;;14.87;76.01;100384.95;125883;1093;22832;-57
2021/06/28 03:39:50;;;;;;;20.50;8.55;;;;;;;14.85;75.65;100377.03;125893;1093;27300;-59
2021/06/28 03:42:22;;;;;;;16.25;8.50;;;;;;;14.85;75.81;100379.84;125887;1093;22838;-57
2021/06/28 03:44:53;;;;;;;16.50;8.37;;;;;;;14.83;76.14;100382.39;125948;1093;22751;-58
2021/06/28 03:47:25;;;;;;;17.65;8.80;;;;;;;14.83;75.56;100390.82;125931;1093;22754;-58
2021/06/28 03:49:57;;;;;;;15.80;8.10;;;;;;;14.84;75.77;100397.97;125934;1092;24423;-56
2021/06/28 03:52:29;;;;;;;20.45;8.70;;;;;;;14.84;76.03;100392.34;126078;1093;27342;-58
2021/06/28 03:55:00;;;;;;;16.90;9.35;;;;;;;14.86;76.30;100394.64;125943;1093;22757;-57
2021/06/28 03:57:32;;;;;;;20.80;9.70;;;;;;;14.85;76.26;100393.89;125829;1093;22757;-58
2021/06/28 04:00:07;;;;;;;20.17;9.37;;;;;;;14.88;76.16;100400.52;125920;1093;22781;-59
2021/06/28 04:02:41;;;;;;;18.20;9.60;;;;;;;14.90;76.54;100397.98;125902;1093;24430;-58
2021/06/28 04:05:18;;;;;;;18.60;9.63;;;;;;;14.91;76.51;100408.73;125946;1093;22908;-58
2021/06/28 04:07:52;;;;;;;16.67;9.43;;;;;;;14.95;76.71;100400.83;125928;1093;22855;-57
2021/06/28 04:10:26;;;;;;;19.37;9.27;;;;;;;15.00;76.59;100411.31;125928;1093;23002;-58
2021/06/28 04:12:58;;;;;;;18.20;9.80;;;;;;;15.04;76.70;100414.65;126213;1093;22822;-57
2021/06/28 04:15:29;;;;;;;21.13;10.57;;;;;;;15.08;76.53;100425.67;126142;1092;22826;-57
2021/06/28 04:18:01;;;;;;;20.10;10.80;;;;;;;15.11;76.95;100421.83;125892;1093;22754;-57
2021/06/28 04:20:33;;;;;;;18.20;10.15;;;;;;;15.13;77.01;100417.25;125964;1093;22842;-58
2021/06/28 04:23:04;;;;;;;26.50;10.40;;;;;;;15.17;77.10;100419.80;125860;1093;22760;-59
2021/06/28 04:25:36;;;;;;;24.57;10.60;;;;;;;15.20;76.96;100413.18;125829;1093;22808;-56
2021/06/28 04:28:08;;;;;;;18.65;10.50;;;;;;;15.23;77.03;100412.92;125929;1093;24630;-56
2021/06/28 04:30:41;;;;;;;21.00;11.93;;;;;;;15.27;76.91;100410.64;125733;1093;26703;-57
2021/06/28 04:33:12;;;;;;;21.75;10.15;;;;;;;15.31;76.86;100413.22;125827;1093;25846;-58
2021/06/28 04:35:44;;;;;;;21.90;11.40;;;;;;;15.31;77.33;100402.72;125734;1092;22772;-58
2021/06/28 04:38:16;;;;;;;20.90;10.90;;;;;;;15.35;77.38;100406.05;125561;1093;22764;-55
2021/06/28 04:40:48;;;;;;;20.90;10.50;;;;;;;15.40;77.33;100404.53;125705;1093;22799;-57
2021/06/28 04:43:20;;;;;;;20.90;10.85;;;;;;;15.47;77.06;100408.92;125774;1093;22776;-57
2021/06/28 04:45:54;;;;;;;20.30;11.10;;;;;;;15.52;77.80;100414.55;125658;1092;22767;-55
2021/06/28 04:48:26;;;;;;;21.95;12.40;;;;;;;15.59;77.90;100410.48;126176;1093;24465;-57
2021/06/28 04:50:57;;;;;;;20.13;10.80;;;;;;;15.67;77.40;100409.47;125949;1093;26385;-58
2021/06/28 04:53:30;;;;;;;25.45;13.05;;;;;;;15.76;78.20;100408.45;125819;1092;22782;-61
2021/06/28 04:56:04;;;;;;;25.80;12.15;;;;;;;15.82;77.58;100407.18;125726;1093;22739;-61
2021/06/28 04:58:35;;;;;;;19.40;11.40;;;;;;;15.89;77.47;100408.72;125817;1093;22794;-60
2021/06/28 05:01:07;;;;;;;23.40;12.50;;;;;;;15.93;77.62;100401.53;125829;1093;22819;-60
2021/06/28 05:03:41;;;;;;;25.95;11.90;;;;;;;15.97;78.01;100401.30;126068;1093;28467;-61
2021/06/28 05:06:13;;;;;;;23.60;12.40;;;;;;;16.02;77.72;100406.14;126051;1093;24413;-59
2021/06/28 05:08:44;;;;;;;22.20;11.50;;;;;;;16.08;77.71;100406.91;126133;1093;24093;-61
2021/06/28 05:11:16;;;;;;;21.00;11.10;;;;;;;16.15;77.48;100406.39;126201;1093;24476;-60
2021/06/28 05:13:48;;;;;;;22.30;11.60;;;;;;;16.20;77.85;100400.75;126173;1093;22764;-60
2021/06/28 05:16:19;;;;;;;21.40;11.70;;;;;;;16.28;77.66;100405.88;126017;1092;24332;-61
2021/06/28 05:18:51;;;;;;;20.50;11.55;;;;;;;16.38;77.79;100407.91;126220;1093;28394;-59
2021/06/28 05:21:23;;;;;;;18.50;10.35;;;;;;;16.48;77.36;100402.75;125898;1092;22797;-60
2021/06/28 05:23:54;;;;;;;19.50;10.65;;;;;;;16.57;77.31;100403.28;125931;1092;23033;-59
2021/06/28 05:26:26;;;;;;;22.25;11.60;;;;;;;16.69;77.46;100413.24;125970;1092;27586;-59
2021/06/28 05:28:58;;;;;;;23.65;12.90;;;;;;;16.80;77.30;100409.63;125989;1093;22776;-58
2021/06/28 05:31:30;;;;;;;21.17;11.20;;;;;;;16.89;76.86;100409.31;125977;1093;22775;-60
2021/06/28 05:34:02;;;;;;;18.25;10.05;;;;;;;17.02;77.10;100403.11;126125;1093;22767;-59
2021/06/28 05:36:34;;;;;;;23.90;11.83;;;;;;;17.14;77.04;100401.76;125990;1092;22791;-58
2021/06/28 05:39:08;;;;;;;22.20;10.50;;;;;;;17.26;76.58;100406.83;126225;1093;22762;-59
2021/06/28 05:41:40;;;;;;;25.10;11.80;;;;;;;17.38;76.86;100404.72;125931;1092;22793;-59
2021/06/28 05:44:12;;;;;;;21.45;11.85;;;;;;;17.50;76.87;100403.39;125952;1092;22787;-61
2021/06/28 05:46:44;;;;;;;21.60;11.70;;;;;;;17.63;77.07;100406.36;126013;1093;22787;-61
2021/06/28 05:49:15;;;;;;;22.35;10.75;;;;;;;17.75;76.99;100410.66;125887;1093;22761;-59
2021/06/28 05:51:46;;;;;;;21.10;10.20;;;;;;;17.88;76.50;100407.97;125979;1092;22762;-60
2021/06/28 05:54:18;;;;;;;20.00;12.30;;;;;;;18.01;76.51;100415.83;125985;1092;24417;-61
2021/06/28 05:56:50;;;;;;;22.30;11.30;;;;;;;18.12;76.56;100419.34;125923;1092;27207;-61
2021/06/28 05:59:21;;;;;;;20.55;11.00;;;;;;;18.24;76.20;100423.59;125850;1093;22813;-60
2021/06/28 06:01:53;;;;;;;21.10;11.75;;;;;;;18.36;75.73;100422.19;125903;1092;22843;-62
2021/06/28 06:04:25;;;;;;;22.25;11.90;;;;;;;18.46;75.84;100423.40;125945;1093;22760;-60
2021/06/28 06:06:58;;;;;;;22.30;11.85;;;;;;;18.58;75.57;100424.04;126092;1092;22852;-61
2021/06/28 06:09:30;;;;;;;20.80;11.55;;;;;;;18.68;75.39;100421.64;126604;1093;22787;-61
2021/06/28 06:12:02;;;;;;;24.85;11.85;;;;;;;18.77;75.14;100426.92;127211;1093;22921;-62
2021/06/28 06:14:33;;;;;;;21.50;11.90;;;;;;;18.87;74.95;100425.28;126268;1093;22922;-61
2021/06/28 06:17:05;;;;;;;21.23;12.37;;;;;;;18.98;75.45;100423.08;125932;1093;27287;-58
2021/06/28 06:19:37;;;;;;;24.37;12.93;;;;;;;19.07;74.81;100421.94;125982;1092;23272;-59
2021/06/28 06:22:10;;;;;;;27.93;12.97;;;;;;;19.17;74.90;100434.41;125999;1093;22787;-60
2021/06/28 06:24:41;;;;;;;23.90;11.70;;;;;;;19.27;74.79;100433.51;126097;1093;22733;-63
2021/06/28 06:27:13;;;;;;;20.77;11.33;;;;;;;19.38;74.70;100434.69;126123;1092;22748;-60
2021/06/28 06:29:45;;;;;;;23.50;12.10;;;;;;;19.47;75.09;100437.14;126060;1092;22720;-62
2021/06/28 06:32:17;;;;;;;27.00;12.10;;;;;;;19.56;74.49;100433.91;126044;1093;22778;-60
2021/06/28 06:34:48;;;;;;;23.87;12.57;;;;;;;19.64;73.71;100440.48;126099;1093;22760;-60
2021/06/28 06:37:20;;;;;;;23.78;11.85;;;;;;;19.73;73.97;100437.27;125999;1093;22781;-61
2021/06/28 06:39:52;;;;;;;21.37;11.37;;;;;;;19.83;74.14;100442.00;126165;1092;22838;-61
2021/06/28 06:42:24;;;;;;;20.77;11.03;;;;;;;19.94;73.36;100441.83;126044;1092;22916;-61
2021/06/28 06:44:55;;;;;;;22.95;11.48;;;;;;;20.06;73.84;100439.57;126005;1093;27179;-60
2021/06/28 06:47:27;;;;;;;18.07;10.27;;;;;;;20.21;73.57;100453.27;125890;1093;26899;-61
2021/06/28 06:49:59;;;;;;;22.00;11.17;;;;;;;20.31;72.72;100451.55;126033;1093;22775;-59
2021/06/28 06:52:30;;;;;;;20.18;12.33;;;;;;;20.39;72.60;100455.27;126093;1093;22748;-61
2021/06/28 06:55:03;;;;;;;19.05;9.78;;;;;;;20.47;72.21;100462.59;126027;1093;22783;-61
2021/06/28 06:57:34;;;;;;;20.35;9.95;;;;;;;20.55;72.08;100459.88;126035;1093;24461;-61
2021/06/28 07:00:09;;;;;;;17.83;8.85;;;;;;;20.65;72.25;100461.00;125980;1093;25839;-60
2021/06/28 07:02:41;;;;;;;17.50;9.43;;;;;;;20.80;72.24;100458.38;126075;1093;22808;-61
2021/06/28 07:05:14;;;;;;;20.03;9.90;;;;;;;20.93;71.29;100464.06;125915;1093;27208;-61
2021/06/28 07:07:47;;;;;;;20.60;9.60;;;;;;;21.03;70.95;100473.70;125974;1093;22736;-62
2021/06/28 07:10:19;;;;;;;15.73;8.00;;;;;;;21.14;70.82;100476.31;125943;1093;22787;-61
2021/06/28 07:12:50;;;;;;;14.80;7.50;;;;;;;21.24;70.77;100477.39;126019;1092;22790;-60
2021/06/28 07:15:23;;;;;;;16.65;8.25;;;;;;;21.34;69.65;100474.86;126393;1093;22828;-66
2021/06/28 07:17:56;;;;;;;14.00;6.75;;;;;;;21.42;69.62;100472.88;125967;1093;27734;-63
2021/06/28 07:20:27;;;;;;;17.07;8.10;;;;;;;21.50;69.24;100480.19;126151;1093;22847;-61
2021/06/28 07:22:58;;;;;;;16.55;7.45;;;;;;;21.58;68.76;100474.61;125854;1093;22786;-62
2021/06/28 07:25:30;;;;;;;17.70;6.27;;;;;;;21.68;69.16;100479.26;125809;1093;22794;-61
2021/06/28 07:28:02;;;;;;;15.63;7.15;;;;;;;21.79;68.32;100483.19;125820;1092;25842;-61
2021/06/28 07:30:34;;;;;;;19.03;8.45;;;;;;;21.91;67.97;100484.48;125942;1093;22787;-60
2021/06/28 07:33:07;;;;;;;15.33;7.77;;;;;;;21.99;68.29;100474.72;125758;1093;22774;-61
2021/06/28 07:35:39;;;;;;;16.73;7.07;;;;;;;22.12;67.92;100483.17;126056;1092;22768;-61
2021/06/28 07:38:11;;;;;;;16.35;5.83;;;;;;;22.22;67.40;100477.78;125959;1092;27211;-61
2021/06/28 07:40:42;;;;;;;11.80;5.63;;;;;;;22.31;66.74;100485.81;125720;1093;22735;-61
2021/06/28 07:43:14;;;;;;;13.58;5.55;;;;;;;22.41;66.33;100481.16;125766;1093;22751;-61
2021/06/28 07:45:48;;;;;;;16.23;5.43;;;;;;;22.50;66.27;100477.83;125952;1092;27215;-61
2021/06/28 07:48:20;;;;;;;11.00;5.30;;;;;;;22.61;65.51;100471.12;125888;1093;26547;-61
2021/06/28 07:50:52;;;;;;;14.05;5.25;;;;;;;22.71;65.00;100483.52;125724;1093;22761;-61
2021/06/28 07:53:24;;;;;;;11.80;5.55;;;;;;;22.80;64.19;100469.53;125890;1093;25858;-61
2021/06/28 07:55:56;;;;;;;11.78;4.38;;;;;;;22.91;64.07;100462.78;126173;1093;22778;-61
2021/06/28 07:58:27;;;;;;;13.28;4.95;;;;;;;23.03;64.21;100467.60;125823;1093;23285;-62
2021/06/28 08:00:59;;;;;;;17.53;5.23;;;;;;;23.14;63.82;100464.45;125789;1093;22767;-61
2021/06/28 08:03:32;;;;;;;11.75;4.30;;;;;;;23.25;63.45;100466.98;126197;1093;26321;-61
2021/06/28 08:06:03;;;;;;;13.25;4.18;;;;;;;23.33;62.34;100460.57;126075;1093;25833;-62
2021/06/28 08:08:35;;;;;;;10.60;3.63;;;;;;;23.41;62.67;100455.66;125856;1093;22747;-61
2021/06/28 08:11:08;;;;;;;18.15;4.95;;;;;;;23.53;62.87;100456.84;125822;1093;22758;-62
2021/06/28 08:13:45;;;;;;;13.33;4.53;;;;;;;23.60;62.38;100454.04;126024;1093;26340;-62
2021/06/28 08:16:18;;;;;;;11.78;4.78;;;;;;;23.70;61.94;100448.55;125827;1093;22700;-61
2021/06/28 08:18:52;;;;;;;11.08;4.28;;;;;;;23.73;61.13;100442.47;125999;1093;25530;-63
2021/06/28 08:21:25;;;;;;;13.15;4.90;;;;;;;23.81;61.17;100446.13;125826;1092;22772;-61
2021/06/28 08:23:57;;;;;;;11.93;4.15;;;;;;;23.92;60.79;100442.13;125993;1093;26242;-61
2021/06/28 08:26:30;;;;;;;13.08;4.30;;;;;;;24.04;60.16;100446.19;126035;1093;27299;-62
2021/06/28 08:29:03;;;;;;;10.33;3.23;;;;;;;24.13;59.94;100450.58;126142;1093;26577;-61
2021/06/28 08:31:37;;;;;;;15.87;4.53;;;;;;;24.24;59.30;100442.41;126019;1093;24489;-61
2021/06/28 08:34:09;;;;;;;11.60;4.48;;;;;;;24.29;58.70;100441.46;125970;1093;22788;-62
2021/06/28 08:36:40;;;;;;;12.23;4.05;;;;;;;24.36;59.19;100442.77;125941;1093;26236;-62
2021/06/28 08:39:12;;;;;;;10.13;3.43;;;;;;;24.45;58.21;100437.27;125649;1091;22791;-62
2021/06/28 08:41:46;;;;;;;10.73;3.38;;;;;;;24.52;58.08;100444.31;125853;1093;22820;-63
2021/06/28 08:44:18;;;;;;;6.55;2.70;;;;;;;24.59;57.12;100438.59;125887;1093;22855;-61
2021/06/28 08:46:50;;;;;;;14.60;3.35;;;;;;;24.67;56.44;100445.05;126007;1093;26508;-61
2021/06/28 08:49:22;;;;;;;11.43;3.05;;;;;;;24.76;55.81;100444.50;125935;1093;22793;-61
2021/06/28 08:51:54;;;;;;;10.58;3.30;;;;;;;24.87;55.60;100443.34;125930;1092;22781;-61
2021/06/28 08:54:25;;;;;;;7.95;3.18;;;;;;;24.89;56.10;100435.70;125971;1092;22788;-61
2021/06/28 08:56:57;;;;;;;10.95;3.48;;;;;;;24.98;56.17;100434.34;125979;1093;22851;-62
2021/06/28 08:59:29;;;;;;;10.20;2.70;;;;;;;25.11;55.48;100444.78;126029;1093;22784;-61
2021/06/28 09:02:00;;;;;;;6.55;2.58;;;;;;;25.23;55.08;100435.22;126057;1093;23344;-62
2021/06/28 09:04:32;;;;;;;6.60;2.18;;;;;;;25.38;54.80;100440.11;125908;1093;22765;-62
2021/06/28 09:07:20;;;;;;;7.65;2.30;;;;;;;25.49;53.79;100437.60;126035;1093;22781;-61
2021/06/28 09:09:52;;;;;;;9.58;2.40;;;;;;;25.56;52.81;100427.48;126062;1092;22831;-62
2021/06/28 09:12:24;;;;;;;6.80;2.63;;;;;;;25.63;52.36;100441.75;125991;1092;22754;-62
2021/06/28 09:14:58;;;;;;;6.60;2.55;;;;;;;25.68;52.30;100437.89;125664;1093;22806;-62
2021/06/28 09:17:36;;;;;;;7.10;2.33;;;;;;;25.79;52.67;100438.78;125990;1093;22760;-62
2021/06/28 09:20:16;;;;;;;7.67;2.53;;;;;;;25.92;52.07;100435.66;126033;1093;22787;-62
2021/06/28 09:22:49;;;;;;;8.10;2.75;;;;;;;26.00;52.15;100439.23;127596;1093;27160;-61
2021/06/28 09:25:35;;;;;;;6.23;2.43;;;;;;;26.01;50.83;100437.90;125939;1093;22923;-61
2021/06/28 09:28:08;;;;;;;7.58;2.10;;;;;;;26.05;51.07;100432.53;126045;1093;25845;-60
2021/06/28 09:30:50;;;;;;;6.10;2.33;;;;;;;26.05;50.04;100438.25;125911;1093;22851;-60
2021/06/28 09:33:25;;;;;;;8.28;2.35;;;;;;;26.03;49.40;100432.35;125917;1092;22811;-61
2021/06/28 09:35:57;;;;;;;6.75;2.08;;;;;;;26.07;50.15;100433.47;125900;1092;25394;-61
2021/06/28 09:38:38;;;;;;;9.33;2.80;;;;;;;26.06;49.42;100431.17;126268;1093;22853;-62
2021/06/28 09:41:24;;;;;;;6.50;1.85;;;;;;;26.14;49.35;100432.66;126385;1093;23248;-63
2021/06/28 09:44:01;;;;;;;5.25;1.85;;;;;;;26.25;48.65;100437.94;126309;1093;22757;-62
2021/06/28 09:46:33;;;;;;;5.83;1.93;;;;;;;26.32;47.78;100434.23;126263;1092;23370;-62
2021/06/28 09:49:05;;;;;;;7.58;1.95;;;;;;;26.45;47.81;100436.80;126071;1093;24480;-62
2021/06/28 09:51:39;;;;;;;4.53;1.60;;;;;;;26.57;46.21;100436.33;125935;1093;22790;-61
2021/06/28 09:54:21;;;;;;;7.43;2.08;;;;;;;26.63;47.16;100433.98;125976;1093;22830;-62
2021/06/28 09:56:54;;;;;;;6.38;1.90;;;;;;;26.77;46.36;100440.93;125996;1093;23292;-62
2021/06/28 09:59:28;;;;;;;6.45;2.00;;;;;;;26.83;46.65;100441.44;126033;1093;22759;-62
2021/06/28 10:02:16;;;;;;;5.43;1.70;;;;;;;26.92;46.91;100441.52;125924;1093;25995;-62
2021/06/28 10:04:53;;;;;;;4.65;1.88;;;;;;;26.99;46.01;100432.09;125886;1093;22764;-62
2021/06/28 10:07:34;;;;;;;4.33;1.68;;;;;;;27.13;45.86;100429.63;125775;1093;22759;-62
2021/06/28 10:10:17;;;;;;;6.78;2.05;;;;;;;27.24;45.55;100432.00;126042;1093;23014;-62
2021/06/28 10:13:00;;;;;;;6.58;1.90;;;;;;;27.25;44.12;100430.66;125799;1093;26505;-62
2021/06/28 10:15:33;;;;;;;3.88;1.48;;;;;;;27.20;43.87;100431.66;125758;1093;22790;-62
2021/06/28 10:18:07;;;;;;;5.60;1.48;;;;;;;27.18;42.99;100438.00;125755;1093;22925;-62
2021/06/28 10:20:41;;;;;;;4.23;1.60;;;;;;;27.18;43.25;100440.09;125845;1093;22767;-63
2021/06/28 10:23:12;;;;;;;4.93;1.60;;;;;;;27.23;43.15;100430.47;125754;1093;22761;-61
2021/06/28 10:25:44;;;;;;;5.70;1.50;;;;;;;27.28;43.16;100432.33;125873;1092;23216;-62
2021/06/28 10:28:15;;;;;;;3.88;1.65;;;;;;;27.30;42.69;100432.49;125784;1093;23213;-62
2021/06/28 10:30:49;;;;;;;4.90;1.40;;;;;;;27.30;42.24;100440.33;125958;1093;22751;-62
2021/06/28 10:33:22;;;;;;;4.18;1.30;;;;;;;27.24;41.93;100429.13;125877;1093;22759;-62
2021/06/28 10:36:03;;;;;;;3.90;1.38;;;;;;;27.17;41.67;100427.87;125810;1093;22754;-62
2021/06/28 10:38:48;;;;;;;3.53;1.25;;;;;;;27.03;41.30;100432.43;125947;1093;22775;-61
2021/06/28 10:41:37;;;;;;;5.15;1.40;;;;;;;26.88;40.54;100429.72;125856;1093;22781;-61
2021/06/28 10:44:11;;;;;;;4.98;1.35;;;;;;;26.77;40.71;100438.06;125903;1093;26344;-67
2021/06/28 10:46:46;;;;;;;5.98;1.40;;;;;;;26.74;41.06;100427.77;125898;1093;22788;-64
2021/06/28 10:49:38;;;;;;;4.90;1.50;;;;;;;26.74;41.21;100428.53;125865;1093;22851;-61
2021/06/28 10:52:09;;;;;;;6.13;1.58;;;;;;;26.70;41.71;100433.89;126010;1092;22775;-62
2021/06/28 10:54:41;;;;;;;4.35;1.48;;;;;;;26.67;40.65;100422.86;126030;1092;26270;-61
2021/06/28 10:57:13;;;;;;;4.48;1.30;;;;;;;26.58;40.01;100427.14;125869;1092;22955;-61
2021/06/28 10:59:47;;;;;;;4.23;1.45;;;;;;;26.50;39.73;100423.59;125936;1093;22887;-62
2021/06/28 11:02:22;;;;;;;8.43;1.70;;;;;;;26.45;41.03;100422.48;126126;1093;22754;-62
2021/06/28 11:05:07;;;;;;;4.68;1.43;;;;;;;26.49;41.02;100419.20;125855;1093;22767;-62
2021/06/28 11:07:47;;;;;;;4.23;1.60;;;;;;;26.53;41.26;100415.95;126198;1093;23383;-61
2021/06/28 11:10:36;;;;;;;;;;;;;;;26.58;41.03;100409.20;125851;1093;22876;-61
2021/06/28 11:13:35;;;;;;;5.38;1.30;;;;;;;26.59;40.48;100416.45;125964;1092;21517;-62
2021/06/28 11:16:30;;;;;;;3.65;1.40;;;;;;;26.61;40.89;100411.64;125705;1093;22757;-62
2021/06/28 11:19:22;;;;;;;5.80;1.55;;;;;;;26.65;40.74;100420.57;125966;1092;22779;-64
2021/06/28 11:21:54;;;;;;;4.05;1.50;;;;;;;26.72;40.77;100416.14;125970;1093;26087;-62
2021/06/28 11:24:34;;;;;;;6.40;1.50;;;;;;;26.71;40.52;100409.66;125981;1092;22778;-62
2021/06/28 11:27:21;;;;;;;5.53;1.40;;;;;;;26.73;40.94;100412.72;125797;1092;22920;-62
2021/06/28 11:29:55;;;;;;;7.03;1.60;;;;;;;26.75;40.18;100404.29;125903;1092;27769;-63
2021/06/28 11:32:29;;;;;;;6.75;1.70;;;;;;;26.77;40.48;100407.33;125921;1093;22778;-61
2021/06/28 11:35:01;;;;;;;5.43;1.50;;;;;;;26.78;39.84;100393.73;126222;1093;22781;-62
2021/06/28 11:37:34;;;;;;;4.78;1.73;;;;;;;26.81;40.32;100404.03;126002;1093;22804;-62